createdAt,value
2022-10-27T00:00:52.190Z,3.75
2022-10-27T00:03:19.833Z,2.90
2022-10-27T00:05:47.909Z,2.92
2022-10-27T00:08:21.571Z,7.15
2022-10-27T00:13:30.362Z,2.10
2022-10-27T00:15:59.516Z,4.30
2022-10-27T00:18:26.968Z,4.65
2022-10-27T00:20:58.794Z,2.08
2022-10-27T00:23:25.966Z,5.07
2022-10-27T00:25:56.758Z,2.13
2022-10-27T00:31:12.786Z,4.35
2022-10-27T00:33:41.013Z,3.80
2022-10-27T00:36:11.584Z,2.78
2022-10-27T00:38:38.713Z,5.93
2022-10-27T00:41:08.237Z,3.50
2022-10-27T00:43:39.554Z,4.22
2022-10-27T00:46:20.157Z,4.03
2022-10-27T00:48:49.164Z,3.55
2022-10-27T00:51:19.013Z,3.45
2022-10-27T00:53:47.903Z,2.75
2022-10-27T00:56:15.306Z,2.85
2022-10-27T00:58:45.228Z,2.55
2022-10-27T01:01:13.395Z,2.72
2022-10-27T01:03:40.886Z,2.22
2022-10-27T01:06:09.405Z,4.10
2022-10-27T01:08:37.882Z,3.40
2022-10-27T01:11:05.173Z,2.15
2022-10-27T01:13:32.455Z,3.05
2022-10-27T01:16:33.048Z,3.30
2022-10-27T01:19:15.028Z,2.70
2022-10-27T01:22:12.783Z,2.50
2022-10-27T01:25:03.787Z,2.42
2022-10-27T01:27:39.003Z,2.83
2022-10-27T01:30:06.529Z,2.70
2022-10-27T01:33:04.714Z,3.63
2022-10-27T01:35:57.701Z,3.45
2022-10-27T01:41:01.940Z,2.63
2022-10-27T01:43:30.862Z,3.85
2022-10-27T01:46:00.161Z,5.03
2022-10-27T01:48:27.264Z,2.40
2022-10-27T01:51:01.496Z,3.13
2022-10-27T01:53:35.074Z,4.07
2022-10-27T01:56:05.200Z,2.35
2022-10-27T01:58:49.965Z,3.00
2022-10-27T02:01:22.946Z,3.08
2022-10-27T02:04:05.793Z,2.80
2022-10-27T02:09:48.938Z,2.67
2022-10-27T02:12:28.818Z,4.95
2022-10-27T02:15:00.742Z,2.42
2022-10-27T02:17:35.216Z,4.00
2022-10-27T02:20:06.992Z,2.85
2022-10-27T02:22:37.296Z,2.58
2022-10-27T02:25:05.160Z,3.90
2022-10-27T02:27:43.506Z,4.85
2022-10-27T02:30:10.843Z,2.47
2022-10-27T02:32:38.331Z,3.92
2022-10-27T02:35:06.800Z,2.95
2022-10-27T02:37:36.972Z,4.32
2022-10-27T02:40:05.083Z,2.08
2022-10-27T02:42:32.024Z,2.80
2022-10-27T02:44:59.274Z,2.78
2022-10-27T02:47:26.351Z,4.22
2022-10-27T02:49:53.362Z,5.80
2022-10-27T02:52:20.374Z,3.35
2022-10-27T02:54:48.495Z,6.45
2022-10-27T02:57:16.807Z,3.53
2022-10-27T02:59:44.150Z,4.22
2022-10-27T03:02:11.518Z,2.42
2022-10-27T03:04:38.641Z,3.58
2022-10-27T03:07:05.901Z,4.95
2022-10-27T03:09:33.017Z,3.55
2022-10-27T03:11:59.995Z,1.98
2022-10-27T03:14:26.941Z,2.28
2022-10-27T03:16:53.873Z,2.75
2022-10-27T03:19:20.879Z,4.45
2022-10-27T03:21:47.955Z,2.47
2022-10-27T03:24:14.941Z,2.50
2022-10-27T03:26:42.005Z,4.55
2022-10-27T03:29:08.998Z,3.17
2022-10-27T03:31:35.968Z,2.47
2022-10-27T03:34:05.454Z,3.83
2022-10-27T03:36:33.333Z,3.35
2022-10-27T03:39:00.277Z,3.92
2022-10-27T03:41:29.685Z,2.50
2022-10-27T03:43:56.759Z,3.53
2022-10-27T03:46:23.673Z,3.80
2022-10-27T03:48:50.693Z,2.42
2022-10-27T03:51:17.572Z,2.60
2022-10-27T03:53:44.528Z,2.50
2022-10-27T03:56:13.248Z,3.33
2022-10-27T03:58:40.700Z,4.70
2022-10-27T04:01:07.759Z,4.15
2022-10-27T04:03:34.814Z,3.45
2022-10-27T04:06:01.862Z,3.17
2022-10-27T04:08:28.754Z,2.10
2022-10-27T04:10:55.681Z,3.53
2022-10-27T04:13:28.258Z,3.33
2022-10-27T04:16:03.770Z,2.53
2022-10-27T04:18:30.831Z,2.47
2022-10-27T04:21:07.126Z,2.83
2022-10-27T04:23:34.173Z,3.53
2022-10-27T04:26:01.167Z,2.25
2022-10-27T04:28:30.933Z,1.92
2022-10-27T04:30:57.822Z,3.28
2022-10-27T04:33:28.141Z,3.13
2022-10-27T04:35:57.002Z,4.28
2022-10-27T04:38:23.918Z,2.70
2022-10-27T04:40:50.985Z,2.15
2022-10-27T04:43:17.914Z,3.35
2022-10-27T04:45:45.289Z,2.35
2022-10-27T04:48:12.330Z,3.22
2022-10-27T04:50:39.306Z,3.67
2022-10-27T04:53:06.240Z,2.47
2022-10-27T04:55:33.832Z,2.83
2022-10-27T04:58:05.424Z,2.55
2022-10-27T05:00:34.044Z,1.60
2022-10-27T05:03:01.141Z,2.03
2022-10-27T05:05:29.627Z,2.55
2022-10-27T05:08:03.297Z,4.00
2022-10-27T05:10:34.771Z,3.67
2022-10-27T05:13:02.297Z,2.55
2022-10-27T05:15:29.734Z,5.38
2022-10-27T05:17:56.975Z,2.70
2022-10-27T05:20:24.356Z,2.50
2022-10-27T05:22:51.386Z,5.72
2022-10-27T05:25:18.945Z,4.20
2022-10-27T05:27:45.901Z,2.55
2022-10-27T05:30:13.204Z,2.92
2022-10-27T05:32:43.433Z,2.05
2022-10-27T05:35:14.403Z,3.25
2022-10-27T05:37:45.926Z,2.22
2022-10-27T05:40:13.217Z,2.35
2022-10-27T05:42:40.147Z,1.65
2022-10-27T05:45:07.628Z,2.20
2022-10-27T05:47:34.609Z,2.05
2022-10-27T05:50:03.979Z,1.70
2022-10-27T05:52:30.899Z,2.10
2022-10-27T05:54:57.955Z,2.53
2022-10-27T05:57:24.907Z,2.78
2022-10-27T05:59:51.851Z,2.45
2022-10-27T06:02:18.984Z,2.30
2022-10-27T06:04:46.059Z,1.88
2022-10-27T06:07:13.020Z,3.25
2022-10-27T06:09:40.009Z,3.53
2022-10-27T06:12:07.182Z,2.53
2022-10-27T06:14:34.119Z,2.95
2022-10-27T06:17:03.433Z,2.08
2022-10-27T06:19:30.482Z,3.03
2022-10-27T06:21:57.433Z,3.17
2022-10-27T06:24:24.371Z,2.97
2022-10-27T06:26:54.525Z,2.65
2022-10-27T06:29:23.858Z,2.60
2022-10-27T06:31:50.909Z,3.58
2022-10-27T06:34:20.002Z,2.70
2022-10-27T06:36:47.087Z,2.75
2022-10-27T06:39:14.042Z,4.40
2022-10-27T06:41:40.915Z,3.22
2022-10-27T06:44:07.878Z,3.17
2022-10-27T06:46:36.242Z,4.32
2022-10-27T06:49:03.259Z,4.82
2022-10-27T06:51:30.296Z,4.72
2022-10-27T06:53:57.503Z,4.38
2022-10-27T06:56:24.559Z,2.50
2022-10-27T06:58:54.007Z,2.92
2022-10-27T07:01:21.595Z,4.35
2022-10-27T07:03:50.091Z,3.80
2022-10-27T07:06:17.118Z,3.90
2022-10-27T07:08:44.165Z,4.38
2022-10-27T07:11:11.186Z,3.15
2022-10-27T07:13:38.221Z,2.97
2022-10-27T07:16:05.482Z,3.78
2022-10-27T07:18:34.569Z,3.13
2022-10-27T07:21:01.716Z,4.65
2022-10-27T07:23:28.771Z,4.70
2022-10-27T07:25:55.870Z,2.63
2022-10-27T07:28:23.818Z,2.75
2022-10-27T07:30:54.932Z,3.45
2022-10-27T07:33:25.074Z,2.92
2022-10-27T07:35:52.954Z,2.55
2022-10-27T07:38:20.483Z,3.95
2022-10-27T07:41:16.651Z,2.28
2022-10-27T07:43:52.903Z,2.67
2022-10-27T07:46:20.014Z,2.97
2022-10-27T07:48:47.013Z,2.65
2022-10-27T07:51:14.251Z,3.78
2022-10-27T07:53:43.990Z,3.17
2022-10-27T07:56:11.179Z,4.43
2022-10-27T07:58:38.131Z,3.38
2022-10-27T08:01:05.579Z,3.45
2022-10-27T08:03:35.245Z,3.40
2022-10-27T08:06:03.256Z,4.93
2022-10-27T08:08:31.672Z,4.20
2022-10-27T08:10:58.629Z,3.40
2022-10-27T08:13:25.612Z,7.65
2022-10-27T08:15:52.645Z,2.50
2022-10-27T08:18:19.797Z,3.13
2022-10-27T08:20:48.140Z,4.90
2022-10-27T08:23:17.768Z,5.32
2022-10-27T08:25:45.498Z,4.25
2022-10-27T08:28:13.800Z,2.97
2022-10-27T08:30:49.752Z,2.90
2022-10-27T08:33:18.821Z,3.20
2022-10-27T08:35:45.929Z,4.28
2022-10-27T08:38:15.046Z,3.38
2022-10-27T08:40:42.013Z,3.40
2022-10-27T08:43:37.338Z,3.88
2022-10-27T08:46:16.453Z,4.05
2022-10-27T08:48:45.341Z,2.42
2022-10-27T08:51:21.806Z,3.58
2022-10-27T08:53:52.757Z,3.55
2022-10-27T08:56:21.740Z,2.65
2022-10-27T08:58:55.587Z,4.18
2022-10-27T09:01:52.416Z,5.40
2022-10-27T09:04:34.439Z,3.42
2022-10-27T09:07:13.413Z,4.05
2022-10-27T09:09:50.805Z,4.18
2022-10-27T09:12:45.654Z,2.50
2022-10-27T09:15:36.950Z,4.10
2022-10-27T09:18:18.839Z,4.32
2022-10-27T09:20:51.223Z,1.98
2022-10-27T09:23:28.837Z,2.60
2022-10-27T09:26:00.940Z,3.03
2022-10-27T09:28:54.823Z,1.67
2022-10-27T09:31:43.272Z,5.68
2022-10-27T09:34:29.901Z,2.50
2022-10-27T09:36:57.436Z,2.28
2022-10-27T09:39:24.426Z,4.13
2022-10-27T09:41:52.406Z,2.47
2022-10-27T09:46:59.134Z,4.03
2022-10-27T09:49:38.871Z,3.13
2022-10-27T09:52:29.886Z,2.08
2022-10-27T09:54:59.253Z,2.13
2022-10-27T09:57:32.092Z,2.20
2022-10-27T10:00:16.432Z,2.33
2022-10-27T10:05:34.321Z,3.63
2022-10-27T10:08:20.063Z,1.98
2022-10-27T10:10:55.654Z,1.42
2022-10-27T10:13:23.900Z,3.72
2022-10-27T10:16:11.657Z,1.15
2022-10-27T10:18:46.551Z,1.77
2022-10-27T10:21:14.835Z,2.15
2022-10-27T10:23:41.754Z,3.28
2022-10-27T10:26:19.040Z,2.80
2022-10-27T10:28:47.455Z,1.10
2022-10-27T10:31:24.157Z,3.30
2022-10-27T10:33:52.577Z,1.52
2022-10-27T10:36:34.905Z,1.92
2022-10-27T10:39:02.590Z,1.02
2022-10-27T10:41:30.572Z,1.15
2022-10-27T10:44:17.749Z,1.92
2022-10-27T10:46:53.764Z,1.17
2022-10-27T10:49:28.868Z,2.00
2022-10-27T10:51:59.406Z,1.33
2022-10-27T10:54:37.777Z,1.77
2022-10-27T10:57:05.031Z,1.75
2022-10-27T10:59:34.873Z,1.40
2022-10-27T11:02:26.871Z,1.73
2022-10-27T11:04:54.311Z,2.35
2022-10-27T11:07:25.608Z,1.55
2022-10-27T11:09:58.677Z,2.50
2022-10-27T11:12:35.142Z,2.60
2022-10-27T11:15:17.362Z,1.30
2022-10-27T11:17:47.914Z,1.77
2022-10-27T11:20:24.429Z,2.67
2022-10-27T11:22:53.234Z,1.48
2022-10-27T11:25:24.716Z,1.30
2022-10-27T11:28:16.950Z,3.22
2022-10-27T11:31:03.525Z,0.70
2022-10-27T11:33:55.364Z,2.08
2022-10-27T11:36:29.123Z,0.80
2022-10-27T11:39:06.436Z,1.00
2022-10-27T11:41:51.720Z,1.00
2022-10-27T11:44:47.848Z,2.78
2022-10-27T11:47:26.511Z,0.98
2022-10-27T11:50:08.789Z,1.33
2022-10-27T11:53:09.590Z,1.77
2022-10-27T11:55:53.204Z,0.75
2022-10-27T11:58:26.440Z,1.05
2022-10-27T12:01:18.533Z,1.30
2022-10-27T12:04:09.802Z,1.52
2022-10-27T12:06:45.694Z,0.70
2022-10-27T12:09:21.928Z,0.93
2022-10-27T12:12:26.076Z,1.58
2022-10-27T12:15:19.029Z,0.68
2022-10-27T12:17:54.134Z,1.55
2022-10-27T12:20:44.177Z,2.40
2022-10-27T12:23:34.559Z,1.38
2022-10-27T12:26:15.861Z,2.55
2022-10-27T12:28:46.032Z,1.13
2022-10-27T12:31:20.084Z,1.00
2022-10-27T12:34:00.196Z,1.02
2022-10-27T12:36:51.893Z,1.30
2022-10-27T12:39:49.663Z,2.07
2022-10-27T12:42:46.385Z,1.30
2022-10-27T12:45:49.381Z,1.38
2022-10-27T12:48:39.488Z,0.57
2022-10-27T12:51:34.093Z,1.00
2022-10-27T12:54:31.582Z,1.27
2022-10-27T12:57:17.745Z,1.58
2022-10-27T13:00:07.857Z,0.68
2022-10-27T13:03:05.845Z,1.05
2022-10-27T13:06:16.769Z,1.05
2022-10-27T13:08:57.649Z,2.28
2022-10-27T13:11:51.505Z,1.17
2022-10-27T13:14:24.563Z,1.92
2022-10-27T13:20:03.899Z,1.10
2022-10-27T13:22:40.965Z,1.50
2022-10-27T13:25:25.237Z,0.68
2022-10-27T13:28:22.985Z,1.00
2022-10-27T13:31:14.880Z,1.42
2022-10-27T13:34:02.959Z,0.82
2022-10-27T13:36:31.179Z,2.33
2022-10-27T13:39:22.542Z,2.38
2022-10-27T13:42:04.452Z,0.90
2022-10-27T13:44:39.815Z,1.38
2022-10-27T13:47:17.887Z,1.40
2022-10-27T13:49:52.539Z,3.03
2022-10-27T13:52:23.171Z,2.08
2022-10-27T13:54:51.733Z,1.40
2022-10-27T13:57:29.116Z,2.15
2022-10-27T14:00:04.667Z,1.50
2022-10-27T14:03:20.710Z,1.88
2022-10-27T14:05:49.297Z,1.13
2022-10-27T14:08:25.813Z,0.85
2022-10-27T14:10:54.872Z,1.08
2022-10-27T14:13:39.801Z,0.82
2022-10-27T14:16:07.855Z,2.13
2022-10-27T14:18:38.054Z,1.25
2022-10-27T14:21:41.045Z,2.50
2022-10-27T14:24:20.733Z,1.45
2022-10-27T14:26:47.752Z,1.33
2022-10-27T14:29:24.580Z,1.50
2022-10-27T14:31:51.786Z,0.90
2022-10-27T14:34:24.317Z,1.77
2022-10-27T14:36:55.765Z,3.60
2022-10-27T14:39:25.879Z,2.65
2022-10-27T14:41:56.325Z,1.27
2022-10-27T14:44:29.152Z,1.92
2022-10-27T14:47:00.676Z,2.47
2022-10-27T14:49:52.886Z,2.65
2022-10-27T14:52:32.106Z,1.35
2022-10-27T14:54:59.102Z,0.80
2022-10-27T14:57:37.135Z,3.17
2022-10-27T15:00:24.605Z,1.45
2022-10-27T15:02:53.743Z,2.35
2022-10-27T15:05:29.690Z,1.92
2022-10-27T15:08:07.119Z,2.33
2022-10-27T15:10:38.705Z,1.00
2022-10-27T15:13:12.209Z,2.20
2022-10-27T15:15:44.505Z,2.53
2022-10-27T15:20:56.003Z,1.80
2022-10-27T15:23:23.558Z,1.70
2022-10-27T15:25:56.841Z,3.90
2022-10-27T15:28:29.529Z,2.22
2022-10-27T15:30:56.971Z,1.52
2022-10-27T15:33:26.914Z,5.03
2022-10-27T15:36:16.052Z,2.63
2022-10-27T15:38:44.667Z,2.15
2022-10-27T15:41:18.962Z,1.85
2022-10-27T15:44:03.680Z,3.17
2022-10-27T15:46:33.984Z,1.65
2022-10-27T15:49:01.686Z,1.50
2022-10-27T15:51:50.929Z,0.93
2022-10-27T15:54:42.782Z,2.03
2022-10-27T15:57:32.168Z,1.25
2022-10-27T16:00:18.008Z,2.80
2022-10-27T16:02:46.303Z,2.28
2022-10-27T16:05:31.516Z,4.63
2022-10-27T16:08:20.780Z,1.77
2022-10-27T16:10:54.843Z,12.38
2022-10-27T16:13:25.276Z,6.45
2022-10-27T16:15:53.908Z,5.88
2022-10-27T16:18:25.019Z,5.05
2022-10-27T16:20:52.072Z,3.20
2022-10-27T16:23:22.002Z,2.85
2022-10-27T16:25:51.204Z,2.88
2022-10-27T16:28:27.939Z,2.25
2022-10-27T16:30:54.960Z,2.13
2022-10-27T16:33:32.580Z,3.65
2022-10-27T16:35:59.626Z,2.88
2022-10-27T16:38:26.662Z,3.30
2022-10-27T16:40:58.327Z,2.45
2022-10-27T16:43:32.644Z,2.35
2022-10-27T16:45:59.608Z,4.18
2022-10-27T16:48:26.532Z,6.32
2022-10-27T16:50:53.515Z,1.50
2022-10-27T16:53:21.536Z,2.08
2022-10-27T16:56:47.288Z,3.45
2022-10-27T16:59:14.506Z,2.60
2022-10-27T17:01:41.701Z,2.40
2022-10-27T17:04:10.125Z,1.40
2022-10-27T17:06:40.158Z,1.80
2022-10-27T17:09:08.377Z,3.08
2022-10-27T17:11:35.421Z,3.80
2022-10-27T17:14:02.540Z,6.22
2022-10-27T17:16:29.869Z,3.08
2022-10-27T17:18:59.761Z,3.50
2022-10-27T17:21:27.195Z,4.28
2022-10-27T17:23:54.497Z,3.03
2022-10-27T17:26:21.541Z,3.22
2022-10-27T17:28:50.097Z,3.63
2022-10-27T17:31:23.682Z,3.13
2022-10-27T17:34:39.861Z,2.85
2022-10-27T17:36:57.388Z,2.45
2022-10-27T17:39:35.517Z,4.18
2022-10-27T17:42:05.843Z,3.08
2022-10-27T17:44:33.190Z,4.28
2022-10-27T17:47:00.625Z,2.97
2022-10-27T17:49:37.734Z,2.67
2022-10-27T17:52:06.875Z,2.20
2022-10-27T17:54:36.122Z,2.95
2022-10-27T17:57:03.675Z,2.90
2022-10-27T17:59:30.657Z,4.50
2022-10-27T18:01:57.756Z,4.25
2022-10-27T18:04:28.640Z,7.18
2022-10-27T18:06:55.851Z,4.43
2022-10-27T18:09:23.792Z,4.47
2022-10-27T18:11:50.896Z,4.70
2022-10-27T18:14:21.937Z,6.32
2022-10-27T18:16:51.961Z,7.03
2022-10-27T18:19:19.248Z,6.38
2022-10-27T18:21:47.776Z,6.45
2022-10-27T18:24:16.563Z,5.68
2022-10-27T18:26:49.184Z,6.20
2022-10-27T18:29:18.520Z,8.10
2022-10-27T18:31:48.413Z,5.55
2022-10-27T18:34:16.991Z,7.10
2022-10-27T18:36:44.876Z,6.00
2022-10-27T18:39:15.953Z,7.47
2022-10-27T18:41:43.794Z,6.65
2022-10-27T18:44:10.903Z,4.93
2022-10-27T18:46:55.560Z,5.45
2022-10-27T18:49:36.496Z,4.85
2022-10-27T18:52:12.477Z,6.63
2022-10-27T18:54:39.434Z,7.63
2022-10-27T18:57:06.394Z,8.10
2022-10-27T18:59:33.366Z,6.22
2022-10-27T19:02:00.422Z,7.30
2022-10-27T19:04:27.885Z,5.07
2022-10-27T19:06:54.922Z,4.88
2022-10-27T19:09:26.566Z,5.68
2022-10-27T19:12:07.463Z,6.95
2022-10-27T19:14:35.636Z,6.10
2022-10-27T19:17:02.712Z,4.97
2022-10-27T19:19:29.807Z,5.70
2022-10-27T19:21:56.777Z,7.05
2022-10-27T19:24:24.952Z,5.63
2022-10-27T19:26:55.137Z,6.60
2022-10-27T19:29:25.843Z,6.97
2022-10-27T19:31:53.050Z,4.95
2022-10-27T19:34:20.193Z,7.80
2022-10-27T19:36:47.317Z,4.78
2022-10-27T19:39:14.445Z,5.85
2022-10-27T19:41:55.659Z,5.85
2022-10-27T19:44:26.202Z,5.07
2022-10-27T19:46:53.940Z,4.40
2022-10-27T19:49:21.016Z,5.93
2022-10-27T19:51:48.032Z,7.10
2022-10-27T19:54:18.587Z,5.30
2022-10-27T19:56:47.436Z,5.43
2022-10-27T19:59:20.382Z,5.30
2022-10-27T20:01:51.650Z,5.47
2022-10-27T20:04:25.492Z,6.07
2022-10-27T20:06:53.011Z,6.03
2022-10-27T20:09:21.439Z,6.55
2022-10-27T20:11:49.203Z,6.07
2022-10-27T20:14:16.665Z,6.30
2022-10-27T20:16:45.710Z,6.57
2022-10-27T20:19:15.658Z,6.30
2022-10-27T20:21:43.114Z,5.38
2022-10-27T20:24:29.986Z,6.35
2022-10-27T20:26:57.093Z,4.85
2022-10-27T20:29:26.762Z,4.75
2022-10-27T20:31:58.065Z,4.45
2022-10-27T20:34:26.107Z,4.43
2022-10-27T20:36:55.475Z,4.47
2022-10-27T20:44:38.262Z,6.88
2022-10-27T20:47:05.468Z,5.10
2022-10-27T20:49:32.716Z,4.28
2022-10-27T20:51:59.810Z,5.32
2022-10-27T20:54:31.106Z,5.45
2022-10-27T20:57:02.506Z,5.00
2022-10-27T20:59:29.662Z,4.85
2022-10-27T21:02:14.615Z,5.28
2022-10-27T21:04:41.780Z,4.82
2022-10-27T21:07:08.786Z,4.93
2022-10-27T21:09:35.871Z,3.60
2022-10-27T21:12:02.868Z,4.38
2022-10-27T21:14:29.874Z,5.47
2022-10-27T21:16:56.905Z,5.32
2022-10-27T21:19:43.860Z,3.80
2022-10-27T21:22:11.093Z,3.92
2022-10-27T21:24:38.569Z,4.93
2022-10-27T21:27:05.565Z,4.40
2022-10-27T21:29:33.024Z,4.45
2022-10-27T21:31:59.965Z,7.35
2022-10-27T21:34:26.908Z,4.35
2022-10-27T21:36:54.064Z,5.13
2022-10-27T21:39:20.991Z,5.35
2022-10-27T21:41:50.894Z,4.85
2022-10-27T21:44:17.830Z,3.70
2022-10-27T21:46:44.774Z,5.60
2022-10-27T21:49:11.800Z,4.30
2022-10-27T21:51:38.781Z,3.78
2022-10-27T21:54:06.018Z,3.45
2022-10-27T21:56:35.361Z,3.15
2022-10-27T21:59:03.345Z,4.85
2022-10-27T22:01:30.868Z,5.63
2022-10-27T22:03:58.590Z,4.65
2022-10-27T22:06:30.929Z,6.38
2022-10-27T22:11:28.216Z,3.95
2022-10-27T22:13:56.026Z,4.78
2022-10-27T22:16:26.121Z,4.38
2022-10-27T22:19:06.007Z,3.72
2022-10-27T22:21:39.556Z,7.70
2022-10-27T22:24:07.614Z,3.95
2022-10-27T22:26:34.730Z,5.57
2022-10-27T22:29:01.648Z,4.50
2022-10-27T22:31:31.587Z,4.40
2022-10-27T22:34:02.765Z,5.28
2022-10-27T22:36:30.279Z,4.28
2022-10-27T22:38:59.622Z,3.42
2022-10-27T22:41:27.486Z,4.07
2022-10-27T22:43:56.296Z,5.10
2022-10-27T22:46:28.543Z,3.63
2022-10-27T22:48:55.828Z,4.53
2022-10-27T22:51:24.231Z,3.13
2022-10-27T22:53:52.564Z,4.35
2022-10-27T22:56:21.936Z,3.92
2022-10-27T22:58:51.194Z,3.10
2022-10-27T23:01:29.554Z,4.55
2022-10-27T23:03:59.837Z,3.35
2022-10-27T23:06:29.368Z,4.32
2022-10-27T23:09:01.736Z,3.42
2022-10-27T23:13:57.006Z,3.72
2022-10-27T23:16:24.078Z,5.13
2022-10-27T23:18:51.428Z,6.30
2022-10-27T23:21:18.578Z,3.30
2022-10-27T23:23:45.501Z,5.22
2022-10-27T23:26:24.456Z,3.70
2022-10-27T23:28:53.912Z,4.13
2022-10-27T23:31:21.908Z,3.22
2022-10-27T23:33:59.823Z,4.25
2022-10-27T23:36:28.441Z,4.07
2022-10-27T23:38:55.477Z,3.30
2022-10-27T23:41:25.431Z,6.90
2022-10-27T23:43:55.162Z,6.72
2022-10-27T23:46:26.229Z,3.05
2022-10-27T23:48:53.309Z,6.38
2022-10-27T23:53:47.466Z,4.15
2022-10-27T23:56:14.353Z,3.33
2022-10-27T23:58:42.619Z,5.43
